sensor_id;sensor_type;location;lat;lon;timestamp;pressure;altitude;pressure_sealevel;temperature;humidity
3590;BME280;1809;48.470;9.226;2023-02-28T00:00:33;-16135.16;;;-1.21;100.00
3590;BME280;1809;48.470;9.226;2023-02-28T00:02:59;-16137.69;;;-1.12;100.00
3590;BME280;1809;48.470;9.226;2023-02-28T00:05:26;-16135.72;;;-1.19;100.00
3590;BME280;1809;48.470;9.226;2023-02-28T00:07:52;-16134.88;;;-1.22;100.00
3590;BME280;1809;48.470;9.226;2023-02-28T00:10:23;-16132.06;;;-1.32;100.00
3590;BME280;1809;48.470;9.226;2023-02-28T00:12:49;-16129.94;;;-1.39;100.00
3590;BME280;1809;48.470;9.226;2023-02-28T00:15:15;-16128.13;;;-1.46;100.00
3590;BME280;1809;48.470;9.226;2023-02-28T00:17:40;-16128.97;;;-1.43;100.00
3590;BME280;1809;48.470;9.226;2023-02-28T00:20:07;-16128.69;;;-1.44;100.00
3590;BME280;1809;48.470;9.226;2023-02-28T00:22:36;-16128.81;;;-1.43;100.00
3590;BME280;1809;48.470;9.226;2023-02-28T00:25:03;-16127.41;;;-1.48;100.00
3590;BME280;1809;48.470;9.226;2023-02-28T00:27:29;-16127.84;;;-1.47;100.00
3590;BME280;1809;48.470;9.226;2023-02-28T00:29:54;-16125.44;;;-1.55;100.00
3590;BME280;1809;48.470;9.226;2023-02-28T00:32:21;-16124.72;;;-1.58;100.00
3590;BME280;1809;48.470;9.226;2023-02-28T00:34:46;-16125.28;;;-1.56;100.00
3590;BME280;1809;48.470;9.226;2023-02-28T00:37:12;-16127.97;;;-1.46;100.00
3590;BME280;1809;48.470;9.226;2023-02-28T00:39:38;-16125.00;;;-1.57;100.00
3590;BME280;1809;48.470;9.226;2023-02-28T00:42:05;-16125.56;;;-1.55;100.00
3590;BME280;1809;48.470;9.226;2023-02-28T00:44:31;-16124.44;;;-1.59;100.00
3590;BME280;1809;48.470;9.226;2023-02-28T00:46:57;-16121.63;;;-1.69;100.00
3590;BME280;1809;48.470;9.226;2023-02-28T00:49:23;-16120.50;;;-1.73;100.00
3590;BME280;1809;48.470;9.226;2023-02-28T00:51:49;-16120.78;;;-1.72;100.00
3590;BME280;1809;48.470;9.226;2023-02-28T00:54:14;-16120.09;;;-1.75;100.00
3590;BME280;1809;48.470;9.226;2023-02-28T00:56:39;-16120.94;;;-1.72;100.00
3590;BME280;1809;48.470;9.226;2023-02-28T00:59:05;-16122.47;;;-1.66;100.00
3590;BME280;1809;48.470;9.226;2023-02-28T01:01:30;-16123.31;;;-1.63;100.00
3590;BME280;1809;48.470;9.226;2023-02-28T01:03:56;-16122.47;;;-1.66;100.00
3590;BME280;1809;48.470;9.226;2023-02-28T01:06:21;-16126.16;;;-1.53;100.00
3590;BME280;1809;48.470;9.226;2023-02-28T01:08:46;-16120.22;;;-1.74;100.00
3590;BME280;1809;48.470;9.226;2023-02-28T01:11:14;-16117.81;;;-1.83;100.00
3590;BME280;1809;48.470;9.226;2023-02-28T01:13:40;-16119.22;;;-1.78;100.00
3590;BME280;1809;48.470;9.226;2023-02-28T01:16:06;-16116.00;;;-1.89;100.00
3590;BME280;1809;48.470;9.226;2023-02-28T01:18:31;-16115.72;;;-1.90;100.00
3590;BME280;1809;48.470;9.226;2023-02-28T01:20:56;-16113.72;;;-1.97;100.00
3590;BME280;1809;48.470;9.226;2023-02-28T01:23:23;-16114.28;;;-1.95;100.00
3590;BME280;1809;48.470;9.226;2023-02-28T01:25:52;-16116.00;;;-1.89;100.00
3590;BME280;1809;48.470;9.226;2023-02-28T01:28:17;-16113.44;;;-1.98;100.00
3590;BME280;1809;48.470;9.226;2023-02-28T01:30:47;-16113.72;;;-1.97;100.00
3590;BME280;1809;48.470;9.226;2023-02-28T01:33:13;-16113.44;;;-1.98;100.00
3590;BME280;1809;48.470;9.226;2023-02-28T01:35:38;-16112.75;;;-2.01;100.00
3590;BME280;1809;48.470;9.226;2023-02-28T01:38:03;-16114.00;;;-1.96;100.00
3590;BME280;1809;48.470;9.226;2023-02-28T01:40:29;-16112.59;;;-2.01;100.00
3590;BME280;1809;48.470;9.226;2023-02-28T01:42:54;-16108.94;;;-2.14;100.00
3590;BME280;1809;48.470;9.226;2023-02-28T01:45:28;-16109.34;;;-2.13;100.00
3590;BME280;1809;48.470;9.226;2023-02-28T01:47:58;-16109.66;;;-2.12;100.00
3590;BME280;1809;48.470;9.226;2023-02-28T01:50:28;-16109.34;;;-2.13;100.00
3590;BME280;1809;48.470;9.226;2023-02-28T01:52:57;-16109.78;;;-2.11;100.00
3590;BME280;1809;48.470;9.226;2023-02-28T01:55:25;-16110.78;;;-2.08;100.00
3590;BME280;1809;48.470;9.226;2023-02-28T01:57:56;-16111.91;;;-2.04;100.00
3590;BME280;1809;48.470;9.226;2023-02-28T02:00:25;-16109.50;;;-2.12;100.00
3590;BME280;1809;48.470;9.226;2023-02-28T02:02:54;-16109.78;;;-2.11;100.00
3590;BME280;1809;48.470;9.226;2023-02-28T02:05:27;-16107.66;;;-2.19;100.00
3590;BME280;1809;48.470;9.226;2023-02-28T02:08:00;-16107.53;;;-2.20;100.00
3590;BME280;1809;48.470;9.226;2023-02-28T02:10:45;-16104.69;;;-2.30;100.00
3590;BME280;1809;48.470;9.226;2023-02-28T02:16:25;-16101.59;;;-2.41;100.00
3590;BME280;1809;48.470;9.226;2023-02-28T02:29:47;-16101.59;;;-2.41;100.00
3590;BME280;1809;48.470;9.226;2023-02-28T02:32:31;-16100.19;;;-2.46;100.00
3590;BME280;1809;48.470;9.226;2023-02-28T02:35:46;-16104.16;;;-2.32;100.00
3590;BME280;1809;48.470;9.226;2023-02-28T02:38:11;-16102.72;;;-2.37;100.00
3590;BME280;1809;48.470;9.226;2023-02-28T02:40:43;-16104.44;;;-2.31;100.00
3590;BME280;1809;48.470;9.226;2023-02-28T02:43:26;-16103.84;;;-2.33;100.00
3590;BME280;1809;48.470;9.226;2023-02-28T02:46:03;-16076.91;;;-2.32;100.00
3590;BME280;1809;48.470;9.226;2023-02-28T02:48:33;-16105.56;;;-2.27;100.00
3590;BME280;1809;48.470;9.226;2023-02-28T02:51:01;-16105.84;;;-2.26;100.00
3590;BME280;1809;48.470;9.226;2023-02-28T02:53:36;-16090.00;;;-2.21;100.00
3590;BME280;1809;48.470;9.226;2023-02-28T02:56:03;-15241.09;;;-2.23;100.00
3590;BME280;1809;48.470;9.226;2023-02-28T02:58:34;-13460.31;;;-2.21;100.00
3590;BME280;1809;48.470;9.226;2023-02-28T03:01:02;-13098.09;;;-2.20;100.00
3590;BME280;1809;48.470;9.226;2023-02-28T03:03:29;-12877.31;;;-2.09;100.00
3590;BME280;1809;48.470;9.226;2023-02-28T03:05:58;-14396.72;;;-2.05;100.00
3590;BME280;1809;48.470;9.226;2023-02-28T03:08:25;-15494.59;;;-2.12;100.00
3590;BME280;1809;48.470;9.226;2023-02-28T03:10:52;-16081.16;;;-1.98;100.00
3590;BME280;1809;48.470;9.226;2023-02-28T03:22:26;-16115.00;;;-1.93;100.00
3590;BME280;1809;48.470;9.226;2023-02-28T03:25:08;-16116.97;;;-1.86;100.00
3590;BME280;1809;48.470;9.226;2023-02-28T03:28:11;-16114.56;;;-1.94;100.00
3590;BME280;1809;48.470;9.226;2023-02-28T03:30:59;-16110.78;;;-2.08;100.00
3590;BME280;1809;48.470;9.226;2023-02-28T03:33:42;-16114.00;;;-1.96;100.00
3590;BME280;1809;48.470;9.226;2023-02-28T03:36:13;-16115.13;;;-1.92;100.00
3590;BME280;1809;48.470;9.226;2023-02-28T03:38:52;-16114.72;;;-1.94;100.00
3590;BME280;1809;48.470;9.226;2023-02-28T03:41:27;-16112.59;;;-2.01;100.00
3590;BME280;1809;48.470;9.226;2023-02-28T03:43:58;-16112.31;;;-2.02;100.00
3590;BME280;1809;48.470;9.226;2023-02-28T03:46:27;-16113.16;;;-1.99;100.00
3590;BME280;1809;48.470;9.226;2023-02-28T03:48:59;-16115.13;;;-1.92;100.00
3590;BME280;1809;48.470;9.226;2023-02-28T03:51:27;-16114.72;;;-1.94;100.00
3590;BME280;1809;48.470;9.226;2023-02-28T03:53:57;-16112.31;;;-2.02;100.00
3590;BME280;1809;48.470;9.226;2023-02-28T03:56:32;-16114.28;;;-1.95;100.00
3590;BME280;1809;48.470;9.226;2023-02-28T03:59:14;-16115.72;;;-1.90;100.00
3590;BME280;1809;48.470;9.226;2023-02-28T04:01:44;-16116.84;;;-1.86;100.00
3590;BME280;1809;48.470;9.226;2023-02-28T04:04:11;-16116.56;;;-1.87;100.00
3590;BME280;1809;48.470;9.226;2023-02-28T04:06:38;-16116.00;;;-1.89;100.00
3590;BME280;1809;48.470;9.226;2023-02-28T04:09:06;-16116.84;;;-1.86;100.00
3590;BME280;1809;48.470;9.226;2023-02-28T04:14:03;-16117.25;;;-1.85;100.00
3590;BME280;1809;48.470;9.226;2023-02-28T04:16:30;-16116.41;;;-1.88;100.00
3590;BME280;1809;48.470;9.226;2023-02-28T04:18:56;-16117.13;;;-1.85;100.00
3590;BME280;1809;48.470;9.226;2023-02-28T04:21:28;-16117.97;;;-1.82;100.00
3590;BME280;1809;48.470;9.226;2023-02-28T04:23:54;-16118.53;;;-1.80;100.00
3590;BME280;1809;48.470;9.226;2023-02-28T04:26:20;-16117.97;;;-1.82;100.00
3590;BME280;1809;48.470;9.226;2023-02-28T04:28:45;-16118.53;;;-1.80;100.00
3590;BME280;1809;48.470;9.226;2023-02-28T04:31:10;-16119.94;;;-1.75;100.00
3590;BME280;1809;48.470;9.226;2023-02-28T04:33:35;-16120.34;;;-1.74;100.00
3590;BME280;1809;48.470;9.226;2023-02-28T04:36:06;-16122.34;;;-1.67;100.00
3590;BME280;1809;48.470;9.226;2023-02-28T04:38:34;-16120.78;;;-1.72;100.00
3590;BME280;1809;48.470;9.226;2023-02-28T04:41:00;-16120.50;;;-1.73;100.00
3590;BME280;1809;48.470;9.226;2023-02-28T04:43:27;-16120.78;;;-1.72;100.00
3590;BME280;1809;48.470;9.226;2023-02-28T04:45:53;-16122.47;;;-1.66;100.00
3590;BME280;1809;48.470;9.226;2023-02-28T04:48:23;-16122.47;;;-1.66;100.00
3590;BME280;1809;48.470;9.226;2023-02-28T04:50:48;-16119.22;;;-1.78;100.00
3590;BME280;1809;48.470;9.226;2023-02-28T04:53:14;-16123.03;;;-1.64;100.00
3590;BME280;1809;48.470;9.226;2023-02-28T04:55:39;-16122.47;;;-1.66;100.00
3590;BME280;1809;48.470;9.226;2023-02-28T04:58:05;-16121.91;;;-1.68;100.00
3590;BME280;1809;48.470;9.226;2023-02-28T05:00:31;-16121.63;;;-1.69;100.00
3590;BME280;1809;48.470;9.226;2023-02-28T05:02:56;-16121.34;;;-1.70;100.00
3590;BME280;1809;48.470;9.226;2023-02-28T05:05:21;-16120.78;;;-1.72;100.00
3590;BME280;1809;48.470;9.226;2023-02-28T05:07:47;-16123.59;;;-1.62;100.00
3590;BME280;1809;48.470;9.226;2023-02-28T05:10:12;-16122.34;;;-1.67;100.00
3590;BME280;1809;48.470;9.226;2023-02-28T05:12:37;-16121.50;;;-1.70;100.00
3590;BME280;1809;48.470;9.226;2023-02-28T05:15:04;-16125.56;;;-1.55;100.00
3590;BME280;1809;48.470;9.226;2023-02-28T05:17:30;-16126.16;;;-1.53;100.00
3590;BME280;1809;48.470;9.226;2023-02-28T05:19:55;-16123.88;;;-1.61;100.00
3590;BME280;1809;48.470;9.226;2023-02-28T05:22:20;-16127.56;;;-1.48;100.00
3590;BME280;1809;48.470;9.226;2023-02-28T05:24:46;-16124.31;;;-1.59;100.00
3590;BME280;1809;48.470;9.226;2023-02-28T05:27:11;-16128.53;;;-1.44;100.00
3590;BME280;1809;48.470;9.226;2023-02-28T05:29:37;-16124.31;;;-1.59;100.00
3590;BME280;1809;48.470;9.226;2023-02-28T05:32:11;-16121.91;;;-1.68;100.00
3590;BME280;1809;48.470;9.226;2023-02-28T05:34:38;-16124.44;;;-1.59;100.00
3590;BME280;1809;48.470;9.226;2023-02-28T05:37:04;-16123.19;;;-1.64;100.00
3590;BME280;1809;48.470;9.226;2023-02-28T05:39:29;-16123.47;;;-1.63;100.00
3590;BME280;1809;48.470;9.226;2023-02-28T05:41:54;-16124.44;;;-1.59;100.00
3590;BME280;1809;48.470;9.226;2023-02-28T05:44:20;-16125.00;;;-1.57;100.00
3590;BME280;1809;48.470;9.226;2023-02-28T05:46:45;-16126.16;;;-1.53;100.00
3590;BME280;1809;48.470;9.226;2023-02-28T05:49:10;-16128.41;;;-1.45;100.00
3590;BME280;1809;48.470;9.226;2023-02-28T05:51:36;-16129.81;;;-1.40;100.00
3590;BME280;1809;48.470;9.226;2023-02-28T05:54:05;-16129.53;;;-1.41;100.00
3590;BME280;1809;48.470;9.226;2023-02-28T05:56:30;-16128.13;;;-1.46;100.00
3590;BME280;1809;48.470;9.226;2023-02-28T05:58:55;-16127.00;;;-1.50;100.00
3590;BME280;1809;48.470;9.226;2023-02-28T06:01:23;-16129.25;;;-1.42;100.00
3590;BME280;1809;48.470;9.226;2023-02-28T06:03:49;-16131.06;;;-1.35;100.00
3590;BME280;1809;48.470;9.226;2023-02-28T06:06:14;-16132.78;;;-1.29;100.00
3590;BME280;1809;48.470;9.226;2023-02-28T06:08:39;-16131.78;;;-1.33;100.00
3590;BME280;1809;48.470;9.226;2023-02-28T06:11:05;-16131.63;;;-1.33;100.00
3590;BME280;1809;48.470;9.226;2023-02-28T06:13:31;-16133.06;;;-1.28;100.00
3590;BME280;1809;48.470;9.226;2023-02-28T06:16:00;-16134.75;;;-1.22;100.00
3590;BME280;1809;48.470;9.226;2023-02-28T06:18:26;-16132.34;;;-1.31;100.00
3590;BME280;1809;48.470;9.226;2023-02-28T06:20:54;-16132.78;;;-1.29;100.00
3590;BME280;1809;48.470;9.226;2023-02-28T06:23:20;-16132.91;;;-1.29;100.00
3590;BME280;1809;48.470;9.226;2023-02-28T06:25:46;-16134.88;;;-1.22;100.00
3590;BME280;1809;48.470;9.226;2023-02-28T06:28:12;-16134.03;;;-1.25;100.00
3590;BME280;1809;48.470;9.226;2023-02-28T06:30:38;-16138.28;;;-1.10;100.00
3590;BME280;1809;48.470;9.226;2023-02-28T06:33:04;-16138.41;;;-1.09;100.00
3590;BME280;1809;48.470;9.226;2023-02-28T06:35:29;-16137.97;;;-1.11;100.00
3590;BME280;1809;48.470;9.226;2023-02-28T06:37:55;-16138.84;;;-1.08;100.00
3590;BME280;1809;48.470;9.226;2023-02-28T06:40:20;-16139.97;;;-1.03;100.00
3590;BME280;1809;48.470;9.226;2023-02-28T06:42:46;-16141.09;;;-0.99;100.00
3590;BME280;1809;48.470;9.226;2023-02-28T06:45:11;-16143.63;;;-0.90;100.00
3590;BME280;1809;48.470;9.226;2023-02-28T06:47:38;-16142.50;;;-0.94;100.00
3590;BME280;1809;48.470;9.226;2023-02-28T06:50:05;-16146.44;;;-0.80;100.00
3590;BME280;1809;48.470;9.226;2023-02-28T06:52:30;-16151.53;;;-0.62;100.00
3590;BME280;1809;48.470;9.226;2023-02-28T06:54:56;-16151.09;;;-0.64;100.00
3590;BME280;1809;48.470;9.226;2023-02-28T06:57:32;-16148.41;;;-0.73;100.00
3590;BME280;1809;48.470;9.226;2023-02-28T06:59:59;-16148.41;;;-0.73;100.00
3590;BME280;1809;48.470;9.226;2023-02-28T07:02:24;-16149.56;;;-0.69;100.00
3590;BME280;1809;48.470;9.226;2023-02-28T07:04:50;-16153.91;;;-0.53;100.00
3590;BME280;1809;48.470;9.226;2023-02-28T07:07:15;-16151.25;;;-0.63;100.00
3590;BME280;1809;48.470;9.226;2023-02-28T07:09:41;-16151.94;;;-0.61;100.00
3590;BME280;1809;48.470;9.226;2023-02-28T07:12:06;-16150.41;;;-0.66;100.00
3590;BME280;1809;48.470;9.226;2023-02-28T07:14:31;-16151.81;;;-0.61;100.00
3590;BME280;1809;48.470;9.226;2023-02-28T07:16:57;-16153.06;;;-0.57;100.00
3590;BME280;1809;48.470;9.226;2023-02-28T07:19:22;-16152.09;;;-0.60;100.00
3590;BME280;1809;48.470;9.226;2023-02-28T07:21:47;-16147.56;;;-0.76;100.00
3590;BME280;1809;48.470;9.226;2023-02-28T07:24:13;-16152.94;;;-0.57;100.00
3590;BME280;1809;48.470;9.226;2023-02-28T07:26:40;-16153.06;;;-0.57;100.00
3590;BME280;1809;48.470;9.226;2023-02-28T07:29:06;-16152.38;;;-0.59;100.00
3590;BME280;1809;48.470;9.226;2023-02-28T07:31:31;-16153.50;;;-0.55;100.00
3590;BME280;1809;48.470;9.226;2023-02-28T07:33:56;-16150.41;;;-0.66;100.00
3590;BME280;1809;48.470;9.226;2023-02-28T07:36:22;-16151.53;;;-0.62;100.00
3590;BME280;1809;48.470;9.226;2023-02-28T07:38:48;-16152.50;;;-0.59;100.00
3590;BME280;1809;48.470;9.226;2023-02-28T07:41:19;-16152.09;;;-0.60;100.00
3590;BME280;1809;48.470;9.226;2023-02-28T07:43:45;-16153.50;;;-0.55;100.00
3590;BME280;1809;48.470;9.226;2023-02-28T07:46:13;-16151.81;;;-0.61;100.00
3590;BME280;1809;48.470;9.226;2023-02-28T07:48:40;-16150.97;;;-0.64;100.00
3590;BME280;1809;48.470;9.226;2023-02-28T07:51:06;-16151.25;;;-0.63;100.00
3590;BME280;1809;48.470;9.226;2023-02-28T07:53:31;-16154.63;;;-0.51;100.00
3590;BME280;1809;48.470;9.226;2023-02-28T07:55:58;-16153.78;;;-0.54;100.00
3590;BME280;1809;48.470;9.226;2023-02-28T07:58:25;-16150.81;;;-0.65;100.00
3590;BME280;1809;48.470;9.226;2023-02-28T08:00:51;-16145.59;;;-0.83;100.00
3590;BME280;1809;48.470;9.226;2023-02-28T08:03:21;-16150.09;;;-0.67;100.00
3590;BME280;1809;48.470;9.226;2023-02-28T08:05:46;-16153.22;;;-0.56;100.00
3590;BME280;1809;48.470;9.226;2023-02-28T08:08:13;-16149.69;;;-0.69;100.00
3590;BME280;1809;48.470;9.226;2023-02-28T08:10:38;-16153.50;;;-0.55;100.00
3590;BME280;1809;48.470;9.226;2023-02-28T08:13:03;-16150.41;;;-0.66;100.00
3590;BME280;1809;48.470;9.226;2023-02-28T08:15:29;-16148.41;;;-0.73;100.00
3590;BME280;1809;48.470;9.226;2023-02-28T08:17:54;-16153.06;;;-0.57;100.00
3590;BME280;1809;48.470;9.226;2023-02-28T08:20:21;-16150.66;;;-0.65;100.00
3590;BME280;1809;48.470;9.226;2023-02-28T08:22:47;-16149.56;;;-0.69;100.00
3590;BME280;1809;48.470;9.226;2023-02-28T08:25:13;-16154.34;;;-0.52;100.00
3590;BME280;1809;48.470;9.226;2023-02-28T08:27:38;-16155.19;;;-0.49;100.00
3590;BME280;1809;48.470;9.226;2023-02-28T08:30:04;-16152.94;;;-0.57;100.00
3590;BME280;1809;48.470;9.226;2023-02-28T08:32:29;-16155.59;;;-0.47;100.00
3590;BME280;1809;48.470;9.226;2023-02-28T08:34:55;-16153.63;;;-0.55;100.00
3590;BME280;1809;48.470;9.226;2023-02-28T08:37:20;-16152.50;;;-0.59;100.00
3590;BME280;1809;48.470;9.226;2023-02-28T08:39:45;-16153.78;;;-0.54;100.00
3590;BME280;1809;48.470;9.226;2023-02-28T08:42:11;-16155.19;;;-0.49;100.00
3590;BME280;1809;48.470;9.226;2023-02-28T08:44:36;-16158.56;;;-0.37;100.00
3590;BME280;1809;48.470;9.226;2023-02-28T08:47:02;-16156.03;;;-0.46;100.00
3590;BME280;1809;48.470;9.226;2023-02-28T08:49:27;-16158.72;;;-0.36;100.00
3590;BME280;1809;48.470;9.226;2023-02-28T08:51:53;-16159.97;;;-0.32;100.00
3590;BME280;1809;48.470;9.226;2023-02-28T08:54:20;-16162.53;;;-0.23;100.00
3590;BME280;1809;48.470;9.226;2023-02-28T08:56:46;-16160.81;;;-0.29;100.00
3590;BME280;1809;48.470;9.226;2023-02-28T08:59:14;-16161.66;;;-0.26;100.00
3590;BME280;1809;48.470;9.226;2023-02-28T09:01:40;-16159.69;;;-0.33;100.00
3590;BME280;1809;48.470;9.226;2023-02-28T09:04:07;-16162.53;;;-0.23;100.00
3590;BME280;1809;48.470;9.226;2023-02-28T09:06:34;-16161.25;;;-0.27;100.00
3590;BME280;1809;48.470;9.226;2023-02-28T09:08:59;-16163.78;;;-0.18;100.00
3590;BME280;1809;48.470;9.226;2023-02-28T09:11:26;-16160.53;;;-0.30;100.00
3590;BME280;1809;48.470;9.226;2023-02-28T09:13:52;-16166.31;;;-0.09;100.00
3590;BME280;1809;48.470;9.226;2023-02-28T09:16:18;-16168.16;;;-0.03;100.00
3590;BME280;1809;48.470;9.226;2023-02-28T09:18:43;-16167.44;;;-0.05;100.00
3590;BME280;1809;48.470;9.226;2023-02-28T09:21:11;-16172.38;;;0.13;100.00
3590;BME280;1809;48.470;9.226;2023-02-28T09:23:40;-16170.97;;;0.08;100.00
3590;BME280;1809;48.470;9.226;2023-02-28T09:26:05;-16165.06;;;-0.14;100.00
3590;BME280;1809;48.470;9.226;2023-02-28T09:28:31;-16168.44;;;-0.02;100.00
3590;BME280;1809;48.470;9.226;2023-02-28T09:30:57;-16164.91;;;-0.14;100.00
3590;BME280;1809;48.470;9.226;2023-02-28T09:33:24;-16168.28;;;-0.02;100.00
3590;BME280;1809;48.470;9.226;2023-02-28T09:35:50;-16165.63;;;-0.12;100.00
3590;BME280;1809;48.470;9.226;2023-02-28T09:38:17;-16165.34;;;-0.13;100.00
3590;BME280;1809;48.470;9.226;2023-02-28T09:40:51;-16171.53;;;0.10;100.00
3590;BME280;1809;48.470;9.226;2023-02-28T09:43:21;-16173.50;;;0.17;100.00
3590;BME280;1809;48.470;9.226;2023-02-28T09:45:51;-16172.81;;;0.14;100.00
3590;BME280;1809;48.470;9.226;2023-02-28T09:48:21;-16176.34;;;0.27;100.00
3590;BME280;1809;48.470;9.226;2023-02-28T09:50:51;-16178.59;;;0.35;100.00
3590;BME280;1809;48.470;9.226;2023-02-28T09:53:36;-16180.84;;;0.43;100.00
3590;BME280;1809;48.470;9.226;2023-02-28T09:56:07;-16178.88;;;0.36;100.00
3590;BME280;1809;48.470;9.226;2023-02-28T10:01:16;-16184.78;;;0.57;100.00
3590;BME280;1809;48.470;9.226;2023-02-28T10:06:20;-16183.94;;;0.54;100.00
3590;BME280;1809;48.470;9.226;2023-02-28T10:09:15;-16189.59;;;0.74;100.00
3590;BME280;1809;48.470;9.226;2023-02-28T10:11:44;-16189.44;;;0.74;100.00
3590;BME280;1809;48.470;9.226;2023-02-28T10:14:22;-16188.31;;;0.70;100.00
3590;BME280;1809;48.470;9.226;2023-02-28T10:16:55;-16180.13;;;0.40;100.00
3590;BME280;1809;48.470;9.226;2023-02-28T10:19:41;-16189.84;;;0.75;100.00
3590;BME280;1809;48.470;9.226;2023-02-28T10:22:17;-16188.44;;;0.70;100.00
3590;BME280;1809;48.470;9.226;2023-02-28T10:24:52;-16191.84;;;0.82;100.00
3590;BME280;1809;48.470;9.226;2023-02-28T10:27:28;-16192.81;;;0.86;100.00
3590;BME280;1809;48.470;9.226;2023-02-28T10:29:59;-16189.59;;;0.74;100.00
3590;BME280;1809;48.470;9.226;2023-02-28T10:32:28;-16197.19;;;1.01;100.00
3590;BME280;1809;48.470;9.226;2023-02-28T10:37:45;-16200.16;;;1.12;100.00
3590;BME280;1809;48.470;9.226;2023-02-28T10:40:32;-16195.78;;;0.96;100.00
3590;BME280;1809;48.470;9.226;2023-02-28T10:43:14;-16204.94;;;1.29;100.00
3590;BME280;1809;48.470;9.226;2023-02-28T10:51:04;-16200.28;;;1.13;100.00
3590;BME280;1809;48.470;9.226;2023-02-28T10:53:34;-16201.41;;;1.17;100.00
3590;BME280;1809;48.470;9.226;2023-02-28T11:01:41;-16213.25;;;1.59;100.00
3590;BME280;1809;48.470;9.226;2023-02-28T11:06:48;-16210.44;;;1.49;100.00
3590;BME280;1809;48.470;9.226;2023-02-28T11:09:28;-16213.38;;;1.59;100.00
3590;BME280;1809;48.470;9.226;2023-02-28T11:11:55;-16212.97;;;1.58;100.00
3590;BME280;1809;48.470;9.226;2023-02-28T11:14:30;-16214.53;;;1.63;100.00
3590;BME280;1809;48.470;9.226;2023-02-28T11:16:59;-16218.03;;;1.76;100.00
3590;BME280;1809;48.470;9.226;2023-02-28T11:19:35;-16228.03;;;2.12;100.00
3590;BME280;1809;48.470;9.226;2023-02-28T11:22:04;-16227.63;;;2.10;100.00
3590;BME280;1809;48.470;9.226;2023-02-28T11:24:35;-16229.59;;;2.17;100.00
3590;BME280;1809;48.470;9.226;2023-02-28T11:27:01;-16236.63;;;2.43;100.00
3590;BME280;1809;48.470;9.226;2023-02-28T11:29:32;-16238.31;;;2.49;100.00
3590;BME280;1809;48.470;9.226;2023-02-28T11:32:12;-16245.38;;;2.74;100.00
3590;BME280;1809;48.470;9.226;2023-02-28T11:34:39;-16257.06;;;3.16;100.00
3590;BME280;1809;48.470;9.226;2023-02-28T11:37:09;-16246.78;;;2.79;100.00
3590;BME280;1809;48.470;9.226;2023-02-28T11:39:36;-16251.56;;;2.96;100.00
3590;BME280;1809;48.470;9.226;2023-02-28T11:47:59;-16249.59;;;2.89;100.00
3590;BME280;1809;48.470;9.226;2023-02-28T12:01:29;-16227.91;;;2.11;100.00
3590;BME280;1809;48.470;9.226;2023-02-28T12:07:06;-16222.13;;;1.91;100.00
3590;BME280;1809;48.470;9.226;2023-02-28T12:12:30;-16231.28;;;2.24;100.00
3590;BME280;1809;48.470;9.226;2023-02-28T12:15:41;-16232.41;;;2.28;100.00
3590;BME280;1809;48.470;9.226;2023-02-28T12:21:18;-16231.16;;;2.23;100.00
3590;BME280;1809;48.470;9.226;2023-02-28T12:26:53;-16242.56;;;2.64;100.00
3590;BME280;1809;48.470;9.226;2023-02-28T12:29:28;-16242.28;;;2.63;100.00
3590;BME280;1809;48.470;9.226;2023-02-28T12:32:11;-16246.78;;;2.79;100.00
3590;BME280;1809;48.470;9.226;2023-02-28T12:34:42;-16246.22;;;2.77;100.00
3590;BME280;1809;48.470;9.226;2023-02-28T12:40:03;-16247.34;;;2.81;100.00
3590;BME280;1809;48.470;9.226;2023-02-28T12:42:42;-16256.78;;;3.15;100.00
3590;BME280;1809;48.470;9.226;2023-02-28T12:45:18;-16263.81;;;3.40;100.00
3590;BME280;1809;48.470;9.226;2023-02-28T12:47:47;-16269.59;;;3.61;100.00
3590;BME280;1809;48.470;9.226;2023-02-28T12:50:15;-16275.50;;;3.82;100.00
3590;BME280;1809;48.470;9.226;2023-02-28T12:55:38;-16284.09;;;4.13;100.00
3590;BME280;1809;48.470;9.226;2023-02-28T13:00:48;-16294.66;;;4.51;100.00
3590;BME280;1809;48.470;9.226;2023-02-28T13:06:52;-16304.38;;;4.85;100.00
3590;BME280;1809;48.470;9.226;2023-02-28T13:09:16;-16294.50;;;4.50;100.00
3590;BME280;1809;48.470;9.226;2023-02-28T13:11:50;-16293.09;;;4.45;100.00
3590;BME280;1809;48.470;9.226;2023-02-28T13:14:24;-16297.31;;;4.60;100.00
3590;BME280;1809;48.470;9.226;2023-02-28T13:17:19;-16302.53;;;4.79;100.00
3590;BME280;1809;48.470;9.226;2023-02-28T13:20:04;-16309.56;;;5.04;100.00
3590;BME280;1809;48.470;9.226;2023-02-28T13:22:43;-16306.34;;;4.93;100.00
3590;BME280;1809;48.470;9.226;2023-02-28T13:27:48;-16304.78;;;4.87;100.00
3590;BME280;1809;48.470;9.226;2023-02-28T13:33:34;-16307.03;;;4.95;100.00
3590;BME280;1809;48.470;9.226;2023-02-28T13:38:45;-16293.25;;;4.46;100.00
3590;BME280;1809;48.470;9.226;2023-02-28T13:44:03;-16286.47;;;4.21;100.00
3590;BME280;1809;48.470;9.226;2023-02-28T13:46:29;-16291.00;;;4.38;100.00
3590;BME280;1809;48.470;9.226;2023-02-28T13:48:54;-16290.84;;;4.37;100.00
3590;BME280;1809;48.470;9.226;2023-02-28T13:51:44;-16293.53;;;4.47;100.00
3590;BME280;1809;48.470;9.226;2023-02-28T14:05:04;-16297.19;;;4.60;100.00
3590;BME280;1809;48.470;9.226;2023-02-28T14:07:36;-16299.72;;;4.69;100.00
3590;BME280;1809;48.470;9.226;2023-02-28T14:10:06;-16298.31;;;4.64;100.00
3590;BME280;1809;48.470;9.226;2023-02-28T14:12:57;-16306.34;;;4.93;100.00
3590;BME280;1809;48.470;9.226;2023-02-28T14:15:26;-16309.28;;;5.03;100.00
3590;BME280;1809;48.470;9.226;2023-02-28T14:17:54;-16312.25;;;5.14;100.00
3590;BME280;1809;48.470;9.226;2023-02-28T14:20:21;-16309.84;;;5.05;100.00
3590;BME280;1809;48.470;9.226;2023-02-28T14:25:16;-16307.47;;;4.97;100.00
3590;BME280;1809;48.470;9.226;2023-02-28T14:28:12;-16304.66;;;4.86;100.00
3590;BME280;1809;48.470;9.226;2023-02-28T14:31:07;-16306.47;;;4.93;100.00
3590;BME280;1809;48.470;9.226;2023-02-28T14:36:20;-16306.34;;;4.93;100.00
3590;BME280;1809;48.470;9.226;2023-02-28T14:38:52;-16303.25;;;4.81;100.00
3590;BME280;1809;48.470;9.226;2023-02-28T14:41:26;-16305.06;;;4.88;100.00
3590;BME280;1809;48.470;9.226;2023-02-28T14:43:57;-16301.81;;;4.76;100.00
3590;BME280;1809;48.470;9.226;2023-02-28T14:46:25;-16299.44;;;4.68;100.00
3590;BME280;1809;48.470;9.226;2023-02-28T14:48:52;-16295.78;;;4.55;100.00
3590;BME280;1809;48.470;9.226;2023-02-28T14:51:20;-16298.31;;;4.64;100.00
3590;BME280;1809;48.470;9.226;2023-02-28T14:53:50;-16301.81;;;4.76;100.00
3590;BME280;1809;48.470;9.226;2023-02-28T14:56:25;-16303.38;;;4.82;100.00
3590;BME280;1809;48.470;9.226;2023-02-28T14:58:56;-16303.09;;;4.81;100.00
3590;BME280;1809;48.470;9.226;2023-02-28T15:01:23;-16305.63;;;4.90;100.00
3590;BME280;1809;48.470;9.226;2023-02-28T15:03:57;-16304.78;;;4.87;100.00
3590;BME280;1809;48.470;9.226;2023-02-28T15:06:23;-16303.66;;;4.83;100.00
3590;BME280;1809;48.470;9.226;2023-02-28T15:09:10;-16303.38;;;4.82;100.00